createdAt,value
2018-11-02T01:39:02.323Z,8.50
2018-11-02T01:42:36.183Z,5.92
2018-11-02T01:45:58.365Z,8.95
2018-11-02T06:12:30.374Z,3.47
2018-11-02T06:18:15.484Z,5.05
2018-11-02T06:20:53.436Z,5.47
2018-11-02T06:23:28.875Z,5.73
2018-11-02T06:26:15.636Z,4.85
2018-11-02T06:29:05.724Z,5.27
2018-11-02T06:34:54.594Z,5.73
2018-11-02T06:40:45.133Z,5.37
2018-11-02T06:43:36.764Z,4.07
2018-11-02T07:39:51.659Z,4.17
2018-11-02T09:18:56.805Z,3.27
2018-11-02T17:44:57.029Z,7.70
2018-11-02T18:07:00.675Z,9.67
2018-11-02T18:09:55.623Z,8.03
2018-11-02T18:12:39.632Z,9.37
2018-11-02T18:15:53.100Z,7.50
2018-11-02T18:18:36.396Z,8.50
2018-11-02T18:21:51.792Z,7.60
2018-11-02T18:24:22.724Z,7.30
2018-11-02T18:26:56.296Z,8.60
2018-11-02T18:29:29.573Z,7.87
2018-11-02T18:32:11.529Z,9.37
2018-11-02T18:34:42.978Z,8.53
2018-11-02T18:37:14.319Z,8.57
2018-11-02T18:39:45.213Z,8.10
2018-11-02T18:42:16.097Z,8.50
2018-11-02T18:44:46.925Z,7.50
2018-11-02T18:47:39.967Z,9.37
2018-11-02T18:50:11.155Z,6.70
2018-11-02T18:52:42.896Z,7.30
2018-11-02T18:55:13.913Z,8.87
2018-11-02T18:57:46.402Z,9.50
2018-11-02T19:00:18.547Z,11.67
2018-11-02T19:02:49.436Z,8.17
2018-11-02T19:05:20.612Z,14.40
2018-11-02T19:07:51.206Z,12.37
2018-11-02T19:10:22.113Z,15.87
2018-11-02T19:12:53.546Z,14.93
2018-11-02T19:15:24.841Z,14.70
2018-11-02T19:17:55.610Z,13.07
2018-11-02T19:20:27.100Z,11.53
2018-11-02T19:22:58.188Z,9.33
2018-11-02T19:25:30.052Z,11.30
2018-11-02T19:28:00.360Z,10.70
2018-11-02T19:30:32.254Z,10.13
2018-11-02T19:33:04.259Z,11.80
2018-11-02T19:35:34.814Z,9.40
2018-11-02T19:38:06.044Z,10.83
2018-11-02T19:40:36.858Z,9.87
2018-11-02T19:43:12.634Z,9.30
2018-11-02T19:45:56.229Z,9.33
2018-11-02T19:48:43.885Z,9.87
2018-11-02T19:51:14.715Z,10.03
2018-11-02T19:53:49.961Z,8.87
2018-11-02T19:56:22.973Z,8.80
2018-11-02T19:59:17.634Z,9.03
2018-11-02T20:02:00.346Z,8.47
2018-11-02T20:04:36.355Z,9.07
2018-11-02T20:07:15.822Z,9.27
2018-11-02T20:09:55.629Z,9.00
2018-11-02T20:13:12.351Z,9.90
2018-11-02T20:15:50.588Z,9.23
2018-11-02T20:18:26.857Z,12.63
2018-11-02T20:21:03.893Z,9.97
2018-11-02T20:23:40.116Z,9.40
2018-11-02T20:26:14.707Z,10.80
2018-11-02T20:28:52.685Z,9.13
2018-11-02T20:34:30.886Z,9.83
2018-11-02T20:39:52.083Z,9.50
2018-11-02T20:42:34.988Z,12.03
2018-11-02T20:55:13.971Z,13.27
2018-11-02T20:57:56.623Z,11.47
2018-11-02T21:00:36.147Z,10.50
2018-11-02T21:03:16.208Z,10.20
2018-11-02T21:06:56.486Z,12.67
2018-11-02T21:09:29.416Z,11.13
2018-11-02T21:12:07.028Z,11.00
2018-11-02T21:14:45.089Z,10.60
2018-11-02T21:17:21.088Z,13.10
2018-11-02T21:19:55.196Z,12.63
2018-11-02T21:22:26.128Z,14.70
2018-11-02T21:24:59.535Z,12.27
2018-11-02T21:27:32.899Z,12.43
2018-11-02T21:30:05.544Z,13.07
2018-11-02T21:32:36.691Z,12.20
2018-11-02T21:35:08.613Z,14.60
2018-11-02T21:37:40.666Z,13.30
2018-11-02T21:40:18.264Z,12.77
2018-11-02T21:42:49.667Z,11.00
2018-11-02T21:45:24.247Z,10.80
2018-11-02T21:47:54.871Z,11.47
2018-11-02T21:50:26.032Z,10.43
2018-11-02T21:52:56.675Z,10.40
2018-11-02T21:55:27.532Z,9.13
2018-11-02T21:57:58.423Z,10.87
2018-11-02T22:00:29.303Z,10.03
2018-11-02T22:03:00.499Z,9.57
2018-11-02T22:05:33.122Z,10.00
2018-11-02T22:08:04.300Z,10.83
2018-11-02T22:10:34.884Z,11.30
2018-11-02T22:13:05.806Z,10.73
2018-11-02T22:15:37.276Z,10.50
2018-11-02T22:18:07.618Z,10.73
2018-11-02T22:20:39.718Z,11.80
2018-11-02T22:23:12.364Z,12.77
2018-11-02T22:25:44.510Z,10.67
2018-11-02T22:28:16.351Z,11.17
2018-11-02T22:30:50.684Z,17.07
2018-11-02T22:33:24.332Z,14.40
2018-11-02T22:35:56.236Z,14.33
2018-11-02T22:38:28.348Z,11.93
2018-11-02T22:41:04.072Z,10.37
2018-11-02T22:43:38.481Z,12.80
2018-11-02T22:46:15.611Z,14.63
2018-11-02T22:48:58.365Z,15.67
2018-11-02T22:51:39.292Z,15.83
2018-11-02T22:54:15.481Z,16.00
2018-11-02T22:56:49.156Z,13.63
2018-11-02T22:59:24.091Z,13.60
2018-11-02T23:01:59.669Z,14.70
2018-11-02T23:04:31.846Z,12.60
2018-11-02T23:07:02.268Z,11.00
2018-11-02T23:09:33.449Z,12.40
2018-11-02T23:12:04.303Z,14.67
2018-11-02T23:14:34.968Z,11.10
2018-11-02T23:17:09.553Z,16.10
2018-11-02T23:19:46.868Z,16.37
2018-11-02T23:25:04.355Z,15.50
2018-11-02T23:27:39.294Z,11.87
2018-11-02T23:30:16.256Z,12.50
2018-11-02T23:32:51.133Z,13.80
2018-11-02T23:35:23.792Z,11.10
2018-11-02T23:37:55.259Z,14.23
2018-11-02T23:40:30.196Z,12.40
2018-11-02T23:43:01.971Z,14.40
2018-11-02T23:45:35.047Z,13.33
2018-11-02T23:48:09.579Z,12.53
2018-11-02T23:50:42.787Z,15.97
2018-11-02T23:53:14.640Z,14.90
2018-11-02T23:55:46.773Z,17.20
2018-11-02T23:58:18.172Z,13.20
